createdAt,value
2023-05-23T00:00:10.313Z,64.42
2023-05-23T00:02:41.815Z,64.22
2023-05-23T00:05:10.335Z,64.42
2023-05-23T00:07:38.423Z,64.13
2023-05-23T00:10:07.142Z,64.08
2023-05-23T00:12:37.726Z,63.64
2023-05-23T00:15:08.783Z,63.70
2023-05-23T00:17:38.275Z,64.09
2023-05-23T00:20:09.671Z,64.19
2023-05-23T00:22:42.271Z,64.05
2023-05-23T00:25:11.109Z,64.42
2023-05-23T00:27:40.595Z,65.17
2023-05-23T00:30:09.551Z,64.89
2023-05-23T00:32:38.101Z,64.89
2023-05-23T00:35:07.045Z,65.39
2023-05-23T00:37:35.835Z,65.81
2023-05-23T00:40:03.916Z,65.71
2023-05-23T00:42:33.082Z,65.33
2023-05-23T00:45:02.500Z,64.89
2023-05-23T00:47:30.759Z,65.02
2023-05-23T00:49:58.900Z,65.48
2023-05-23T00:52:27.103Z,65.63
2023-05-23T00:54:55.213Z,66.23
2023-05-23T00:57:23.709Z,65.84
2023-05-23T00:59:51.786Z,65.96
2023-05-23T01:02:22.289Z,66.13
2023-05-23T01:04:54.306Z,65.80
2023-05-23T01:07:22.421Z,65.92
2023-05-23T01:09:51.089Z,66.61
2023-05-23T01:12:21.989Z,66.93
2023-05-23T01:14:53.401Z,67.25
2023-05-23T01:17:37.137Z,67.89
2023-05-23T01:20:10.371Z,68.33
2023-05-23T01:22:52.216Z,68.23
2023-05-23T01:25:29.970Z,68.28
2023-05-23T01:28:02.429Z,67.72
2023-05-23T01:30:33.855Z,67.23
2023-05-23T01:33:02.586Z,67.37
2023-05-23T01:35:31.500Z,67.19
2023-05-23T01:37:59.592Z,66.79
2023-05-23T01:40:27.958Z,66.44
2023-05-23T01:42:57.644Z,66.64
2023-05-23T01:45:28.400Z,67.03
2023-05-23T01:47:57.147Z,66.49
2023-05-23T01:50:27.133Z,66.90
2023-05-23T01:52:56.142Z,67.08
2023-05-23T01:55:24.814Z,67.62
2023-05-23T01:57:53.229Z,67.32
2023-05-23T02:00:21.707Z,67.37
2023-05-23T02:02:51.272Z,67.64
2023-05-23T02:05:19.481Z,67.54
2023-05-23T02:07:47.590Z,67.31
2023-05-23T02:10:18.648Z,66.91
2023-05-23T02:12:46.775Z,66.67
2023-05-23T02:15:14.845Z,66.50
2023-05-23T02:17:43.106Z,66.37
2023-05-23T02:20:14.486Z,66.28
2023-05-23T02:22:42.572Z,66.23
2023-05-23T02:25:10.872Z,67.52
2023-05-23T02:27:40.746Z,67.30
2023-05-23T02:30:09.931Z,67.14
2023-05-23T02:32:38.385Z,67.19
2023-05-23T02:35:07.327Z,67.33
2023-05-23T02:37:36.756Z,67.24
2023-05-23T02:40:07.632Z,67.10
2023-05-23T02:42:35.779Z,68.02
2023-05-23T02:45:03.831Z,67.53
2023-05-23T02:47:32.227Z,67.53
2023-05-23T02:50:00.651Z,68.20
2023-05-23T02:52:29.486Z,68.35
2023-05-23T02:54:58.855Z,68.67
2023-05-23T02:57:27.625Z,68.25
2023-05-23T02:59:55.841Z,68.73
2023-05-23T03:02:23.963Z,68.71
2023-05-23T03:04:52.148Z,69.20
2023-05-23T03:07:28.155Z,69.72
2023-05-23T03:09:58.633Z,70.60
2023-05-23T03:12:26.828Z,70.67
2023-05-23T03:14:55.040Z,70.69
2023-05-23T03:17:23.271Z,70.06
2023-05-23T03:19:51.447Z,70.50
2023-05-23T03:22:20.553Z,70.20
2023-05-23T03:24:48.819Z,70.47
2023-05-23T03:27:18.351Z,71.03
2023-05-23T03:29:46.613Z,70.96
2023-05-23T03:32:14.953Z,70.75
2023-05-23T03:34:43.191Z,71.19
2023-05-23T03:37:12.862Z,71.34
2023-05-23T03:39:41.128Z,71.28
2023-05-23T03:42:09.584Z,71.27
2023-05-23T03:44:39.579Z,71.32
2023-05-23T03:47:08.867Z,71.22
2023-05-23T03:49:39.748Z,72.28
2023-05-23T03:52:08.413Z,71.78
2023-05-23T03:54:36.742Z,71.78
2023-05-23T03:57:05.404Z,72.13
2023-05-23T03:59:35.206Z,71.65
2023-05-23T04:02:06.486Z,73.26
2023-05-23T04:04:35.351Z,73.61
2023-05-23T04:07:05.800Z,75.05
2023-05-23T04:09:34.249Z,75.57
2023-05-23T04:12:03.176Z,76.19
2023-05-23T04:14:33.799Z,76.80
2023-05-23T04:17:02.769Z,76.63
2023-05-23T04:19:32.681Z,75.56
2023-05-23T04:22:02.055Z,75.73
2023-05-23T04:24:30.488Z,76.46
2023-05-23T04:26:59.416Z,77.09
2023-05-23T04:29:27.984Z,76.54
2023-05-23T04:31:56.610Z,78.09
2023-05-23T04:34:24.752Z,78.45
2023-05-23T04:36:55.944Z,78.52
2023-05-23T04:39:24.078Z,77.96
2023-05-23T04:42:13.885Z,78.44
2023-05-23T04:45:36.637Z,77.78
2023-05-23T04:48:13.160Z,77.44
2023-05-23T04:50:47.514Z,79.27
2023-05-23T04:53:17.020Z,79.22
2023-05-23T04:55:46.162Z,79.65
2023-05-23T04:58:17.911Z,79.42
2023-05-23T05:00:46.297Z,79.66
2023-05-23T05:03:16.637Z,79.37
2023-05-23T05:05:46.954Z,79.57
2023-05-23T05:08:19.897Z,80.15
2023-05-23T05:10:48.353Z,80.37
2023-05-23T05:13:17.477Z,80.42
2023-05-23T05:15:49.896Z,80.36
2023-05-23T05:18:18.715Z,79.97
2023-05-23T05:20:47.310Z,80.85
2023-05-23T05:23:17.997Z,80.68
2023-05-23T05:25:46.235Z,81.33
2023-05-23T05:28:14.642Z,81.41
2023-05-23T05:30:46.495Z,81.58
2023-05-23T05:33:15.594Z,81.41
2023-05-23T05:35:44.249Z,81.48
2023-05-23T05:38:12.489Z,81.44
2023-05-23T05:40:42.631Z,80.82
2023-05-23T05:43:11.495Z,80.92
2023-05-23T05:45:40.057Z,81.01
2023-05-23T05:48:08.385Z,80.27
2023-05-23T05:50:37.050Z,80.56
2023-05-23T05:53:05.166Z,80.82
2023-05-23T05:55:33.269Z,80.35
2023-05-23T05:58:02.767Z,80.42
2023-05-23T06:00:42.470Z,80.44
2023-05-23T06:03:10.942Z,80.58
2023-05-23T06:05:46.238Z,80.86
2023-05-23T06:08:14.376Z,80.13
2023-05-23T06:10:42.766Z,80.06
2023-05-23T06:13:12.601Z,80.53
2023-05-23T06:15:43.310Z,79.78
2023-05-23T06:18:11.823Z,80.13
2023-05-23T06:20:40.543Z,80.40
2023-05-23T06:23:15.142Z,80.14
2023-05-23T06:25:43.256Z,79.58
2023-05-23T06:28:12.721Z,79.54
2023-05-23T06:30:41.259Z,79.96
2023-05-23T06:33:09.828Z,79.54
2023-05-23T06:35:37.930Z,78.97
2023-05-23T06:38:05.973Z,79.17
2023-05-23T06:40:34.595Z,77.65
2023-05-23T06:43:02.652Z,78.46
2023-05-23T06:45:55.226Z,76.97
2023-05-23T06:48:23.390Z,77.88
2023-05-23T06:50:52.378Z,76.76
2023-05-23T06:53:21.261Z,76.76
2023-05-23T06:55:50.574Z,75.90
2023-05-23T06:58:25.054Z,76.33
2023-05-23T07:00:54.813Z,75.65
2023-05-23T07:03:33.293Z,75.78
2023-05-23T07:06:05.879Z,74.94
2023-05-23T07:08:34.689Z,74.92
2023-05-23T07:11:03.160Z,75.47
2023-05-23T07:13:51.528Z,74.35
2023-05-23T07:16:28.760Z,74.49
2023-05-23T07:19:03.073Z,73.19
2023-05-23T07:21:32.044Z,74.49
2023-05-23T07:24:00.192Z,73.87
2023-05-23T07:26:29.433Z,72.77
2023-05-23T07:28:58.062Z,72.21
2023-05-23T07:31:26.162Z,74.36
2023-05-23T07:33:59.555Z,72.53
2023-05-23T07:36:35.741Z,72.41
2023-05-23T07:39:08.231Z,72.50
2023-05-23T07:41:36.507Z,72.87
2023-05-23T07:44:04.693Z,71.72
2023-05-23T07:46:33.238Z,71.62
2023-05-23T07:49:02.689Z,72.94
2023-05-23T07:51:30.970Z,71.95
2023-05-23T07:53:59.253Z,71.84
2023-05-23T07:56:27.652Z,71.76
2023-05-23T07:58:56.440Z,72.06
2023-05-23T08:01:25.597Z,71.01
2023-05-23T08:04:01.966Z,72.22
2023-05-23T08:06:39.890Z,69.13
2023-05-23T08:09:30.018Z,70.09
2023-05-23T08:12:17.796Z,70.87
2023-05-23T08:14:51.506Z,68.80
2023-05-23T08:17:43.574Z,68.57
2023-05-23T08:20:14.756Z,70.13
2023-05-23T08:22:42.872Z,71.17
2023-05-23T08:25:11.519Z,67.80
2023-05-23T08:27:41.515Z,68.53
2023-05-23T08:30:28.330Z,68.35
2023-05-23T08:32:58.008Z,68.46
2023-05-23T08:35:29.296Z,66.66
2023-05-23T08:37:58.274Z,68.39
2023-05-23T08:40:29.259Z,67.98
2023-05-23T08:43:04.891Z,67.84
2023-05-23T08:45:34.910Z,67.54
2023-05-23T08:48:04.858Z,68.95
2023-05-23T08:50:38.893Z,67.64
2023-05-23T08:53:08.656Z,66.67
2023-05-23T08:55:38.991Z,67.75
2023-05-23T08:58:07.593Z,66.13
2023-05-23T09:00:47.556Z,66.32
2023-05-23T09:03:15.659Z,66.90
2023-05-23T09:05:58.852Z,68.27
2023-05-23T09:08:27.186Z,66.57
2023-05-23T09:10:59.299Z,65.54
2023-05-23T09:13:28.579Z,67.79
2023-05-23T09:15:59.944Z,66.29
2023-05-23T09:18:34.793Z,63.27
2023-05-23T09:21:05.648Z,64.09
2023-05-23T09:23:36.155Z,65.55
2023-05-23T09:26:05.153Z,65.84
2023-05-23T09:28:34.069Z,66.40
2023-05-23T09:31:02.489Z,66.03
2023-05-23T09:33:37.669Z,64.43
2023-05-23T09:36:08.522Z,64.60
2023-05-23T09:38:39.531Z,64.02
2023-05-23T09:41:08.272Z,64.58
2023-05-23T09:43:36.412Z,63.87
2023-05-23T09:46:09.011Z,64.88
2023-05-23T09:48:37.173Z,64.19
2023-05-23T09:51:10.687Z,64.77
2023-05-23T09:53:38.893Z,64.87
2023-05-23T09:56:07.850Z,62.05
2023-05-23T09:58:36.653Z,63.40
2023-05-23T10:01:04.950Z,62.71
2023-05-23T10:03:35.723Z,65.43
2023-05-23T10:06:09.630Z,64.34
2023-05-23T10:08:40.252Z,61.15
2023-05-23T10:11:47.592Z,63.71
2023-05-23T10:14:16.721Z,63.65
2023-05-23T10:16:51.637Z,62.70
2023-05-23T10:19:24.612Z,62.47
2023-05-23T10:21:59.544Z,63.88
2023-05-23T10:24:27.904Z,61.41
2023-05-23T10:26:56.358Z,62.01
2023-05-23T10:29:24.663Z,62.08
2023-05-23T10:31:53.676Z,61.79
2023-05-23T10:34:27.355Z,61.01
2023-05-23T10:37:01.986Z,62.33
2023-05-23T10:39:37.632Z,61.58
2023-05-23T10:42:11.649Z,62.08
2023-05-23T10:44:39.761Z,61.44
2023-05-23T10:47:08.130Z,61.35
2023-05-23T10:49:40.853Z,60.73
2023-05-23T10:52:11.906Z,60.36
2023-05-23T10:54:44.667Z,62.01
2023-05-23T10:57:14.330Z,61.49
2023-05-23T10:59:42.614Z,61.63
2023-05-23T11:02:15.686Z,62.05
2023-05-23T11:04:44.098Z,61.19
2023-05-23T11:07:31.895Z,58.28
2023-05-23T11:10:10.293Z,59.95
2023-05-23T11:12:39.283Z,60.15
2023-05-23T11:15:22.660Z,59.41
2023-05-23T11:17:53.092Z,60.50
2023-05-23T11:20:23.568Z,59.79
2023-05-23T11:23:00.251Z,62.87
2023-05-23T11:25:42.307Z,59.79
2023-05-23T11:28:10.686Z,59.12
2023-05-23T11:30:39.338Z,61.56
2023-05-23T11:33:09.519Z,60.45
2023-05-23T11:35:37.652Z,61.89
2023-05-23T11:38:07.356Z,59.43
2023-05-23T11:40:36.681Z,54.24
2023-05-23T11:43:06.031Z,60.40
2023-05-23T11:45:35.219Z,58.23
2023-05-23T11:48:10.043Z,57.26
2023-05-23T11:50:46.042Z,60.40
2023-05-23T11:53:17.555Z,60.56
2023-05-23T11:55:53.336Z,59.02
2023-05-23T11:58:23.963Z,57.50
2023-05-23T12:00:55.058Z,58.57
2023-05-23T12:03:23.674Z,56.06
2023-05-23T12:05:52.157Z,53.97
2023-05-23T12:08:21.803Z,56.08
2023-05-23T12:10:51.088Z,55.11
2023-05-23T12:13:19.327Z,55.40
2023-05-23T12:15:47.860Z,54.89
2023-05-23T12:18:17.851Z,55.63
2023-05-23T12:20:45.933Z,51.20
2023-05-23T12:23:21.383Z,52.83
2023-05-23T12:25:51.942Z,53.81
2023-05-23T12:28:20.513Z,56.03
2023-05-23T12:30:48.730Z,55.35
2023-05-23T12:33:16.898Z,53.13
2023-05-23T12:35:45.729Z,53.87
2023-05-23T12:38:17.307Z,50.70
2023-05-23T12:40:46.745Z,51.22
2023-05-23T12:43:16.788Z,52.41
2023-05-23T12:45:44.825Z,49.48
2023-05-23T12:48:12.912Z,51.54
2023-05-23T12:50:41.326Z,53.66
2023-05-23T12:53:09.646Z,52.58
2023-05-23T12:55:37.894Z,53.05
2023-05-23T12:58:07.368Z,53.74
2023-05-23T13:00:35.443Z,52.03
2023-05-23T13:03:03.533Z,51.96
2023-05-23T13:05:31.621Z,50.23
2023-05-23T13:08:00.262Z,47.69
2023-05-23T13:10:30.924Z,49.12
2023-05-23T13:12:59.985Z,50.01
2023-05-23T13:15:29.609Z,50.45
2023-05-23T13:17:58.066Z,48.23
2023-05-23T13:20:30.100Z,51.78
2023-05-23T13:22:59.532Z,53.46
2023-05-23T13:25:28.505Z,50.75
2023-05-23T13:27:57.370Z,49.81
2023-05-23T13:30:25.775Z,48.63
2023-05-23T13:32:55.577Z,49.83
2023-05-23T13:35:23.885Z,50.30
2023-05-23T13:37:53.806Z,53.93
2023-05-23T13:40:22.759Z,53.93
2023-05-23T13:42:52.152Z,50.33
2023-05-23T13:45:22.468Z,48.77
2023-05-23T13:47:50.838Z,48.42
2023-05-23T13:50:20.702Z,52.51
2023-05-23T13:52:49.610Z,50.30
2023-05-23T13:55:18.671Z,50.00
2023-05-23T13:57:47.204Z,50.06
2023-05-23T14:00:16.147Z,50.02
2023-05-23T14:02:44.483Z,49.80
2023-05-23T14:05:12.688Z,50.98
2023-05-23T14:07:47.090Z,48.82
2023-05-23T14:10:15.463Z,48.19
2023-05-23T14:12:43.652Z,48.29
2023-05-23T14:15:13.025Z,50.11
2023-05-23T14:17:41.284Z,47.44
2023-05-23T14:20:10.019Z,44.13
2023-05-23T14:22:38.199Z,45.18
2023-05-23T14:25:08.526Z,45.88
2023-05-23T14:27:36.875Z,45.11
2023-05-23T14:30:06.003Z,47.97
2023-05-23T14:32:38.854Z,47.25
2023-05-23T14:35:07.886Z,46.79
2023-05-23T14:37:36.302Z,43.53
2023-05-23T14:40:04.692Z,48.03
2023-05-23T14:42:34.324Z,47.88
2023-05-23T14:45:02.890Z,43.28
2023-05-23T14:47:32.106Z,43.50
2023-05-23T14:50:00.374Z,44.70
2023-05-23T14:52:28.652Z,41.85
2023-05-23T14:54:56.834Z,44.87
2023-05-23T14:57:25.331Z,40.62
2023-05-23T14:59:54.727Z,38.25
2023-05-23T15:02:22.920Z,40.04
2023-05-23T15:04:51.151Z,41.96
2023-05-23T15:07:19.453Z,42.06
2023-05-23T15:09:48.388Z,44.16
2023-05-23T15:12:16.672Z,42.90
2023-05-23T15:14:45.029Z,41.59
2023-05-23T15:17:19.898Z,41.33
2023-05-23T15:19:48.145Z,42.39
2023-05-23T15:22:35.140Z,43.33
2023-05-23T15:25:04.973Z,41.29
2023-05-23T15:27:33.144Z,41.27
2023-05-23T15:30:01.447Z,43.25
2023-05-23T15:32:31.303Z,40.88
2023-05-23T15:34:59.616Z,39.64
2023-05-23T15:37:27.810Z,42.37
2023-05-23T15:39:56.093Z,42.02
2023-05-23T15:42:24.269Z,41.80
2023-05-23T15:44:52.479Z,42.34
2023-05-23T15:47:21.369Z,43.56
2023-05-23T15:49:50.879Z,41.83
2023-05-23T15:52:19.002Z,44.92
2023-05-23T15:54:47.135Z,45.05
2023-05-23T15:57:15.300Z,42.48
2023-05-23T15:59:43.809Z,42.91
2023-05-23T16:02:11.996Z,43.85
2023-05-23T16:04:40.264Z,44.69
2023-05-23T16:07:09.798Z,46.48
2023-05-23T16:09:37.995Z,46.69
2023-05-23T16:12:06.836Z,45.16
2023-05-23T16:14:34.976Z,44.29
2023-05-23T16:17:06.043Z,45.19
2023-05-23T16:19:37.158Z,45.46
2023-05-23T16:22:06.052Z,44.64
2023-05-23T16:24:35.611Z,44.85
2023-05-23T16:27:03.982Z,44.97
2023-05-23T16:29:32.227Z,44.99
2023-05-23T16:32:00.409Z,45.15
2023-05-23T16:34:28.708Z,45.31
2023-05-23T16:36:56.829Z,47.46
2023-05-23T16:39:25.068Z,46.65
2023-05-23T16:41:54.633Z,46.63
2023-05-23T16:44:22.807Z,47.64
2023-05-23T16:46:51.603Z,47.55
2023-05-23T16:49:19.852Z,47.16
2023-05-23T16:51:48.868Z,47.60
2023-05-23T16:54:17.246Z,49.25
2023-05-23T16:56:45.535Z,47.25
2023-05-23T16:59:16.198Z,47.22
2023-05-23T17:01:44.427Z,49.12
2023-05-23T17:04:12.731Z,49.64
2023-05-23T17:06:41.107Z,49.19
2023-05-23T17:09:09.372Z,49.47
2023-05-23T17:11:37.638Z,49.52
2023-05-23T17:14:06.018Z,48.06
2023-05-23T17:16:35.720Z,49.45
2023-05-23T17:19:04.367Z,49.54
2023-05-23T17:21:32.923Z,49.49
2023-05-23T17:24:01.195Z,48.45
2023-05-23T17:26:29.453Z,48.67
2023-05-23T17:28:57.629Z,48.80
2023-05-23T17:31:26.580Z,49.58
2023-05-23T17:33:57.168Z,47.36
2023-05-23T17:36:25.550Z,48.61
2023-05-23T17:38:54.307Z,48.07
2023-05-23T17:41:23.140Z,47.61
2023-05-23T17:43:51.500Z,48.04
2023-05-23T17:46:19.765Z,48.08
2023-05-23T17:48:48.390Z,48.79
2023-05-23T17:51:18.024Z,48.81
2023-05-23T17:53:46.298Z,49.38
2023-05-23T17:56:14.513Z,49.16
2023-05-23T17:58:44.307Z,50.17
2023-05-23T18:01:13.631Z,50.02
2023-05-23T18:03:42.094Z,49.43
2023-05-23T18:06:10.603Z,48.98
2023-05-23T18:08:41.474Z,48.59
2023-05-23T18:11:11.066Z,49.63
2023-05-23T18:13:39.489Z,49.80
2023-05-23T18:16:08.015Z,50.03
2023-05-23T18:18:36.218Z,50.59
2023-05-23T18:21:04.632Z,49.69
2023-05-23T18:23:33.845Z,51.14
2023-05-23T18:26:03.657Z,49.81
2023-05-23T18:28:31.877Z,50.19
2023-05-23T18:31:00.132Z,50.87
2023-05-23T18:33:28.745Z,50.79
2023-05-23T18:35:57.027Z,50.65
2023-05-23T18:38:25.607Z,51.52
2023-05-23T18:40:53.830Z,52.04
2023-05-23T18:43:23.397Z,52.33
2023-05-23T18:45:51.728Z,52.03
2023-05-23T18:48:19.990Z,52.55
2023-05-23T18:50:48.360Z,52.32
2023-05-23T18:53:16.646Z,52.14
2023-05-23T18:55:44.983Z,52.76
2023-05-23T18:58:14.051Z,53.02
2023-05-23T19:00:45.305Z,53.15
2023-05-23T19:03:14.618Z,53.63
2023-05-23T19:05:42.979Z,53.27
2023-05-23T19:08:11.208Z,53.77
2023-05-23T19:10:39.494Z,53.76
2023-05-23T19:13:07.750Z,54.00
2023-05-23T19:15:36.094Z,53.86
2023-05-23T19:18:06.124Z,53.91
2023-05-23T19:20:34.341Z,54.03
2023-05-23T19:23:02.571Z,54.05
2023-05-23T19:25:31.193Z,54.90
2023-05-23T19:27:59.430Z,55.08
2023-05-23T19:30:27.668Z,55.39
2023-05-23T19:32:56.207Z,55.54
2023-05-23T19:35:26.020Z,55.66
2023-05-23T19:37:54.389Z,56.10
2023-05-23T19:40:22.640Z,56.49
2023-05-23T19:42:51.170Z,57.07
2023-05-23T19:45:19.665Z,57.18
2023-05-23T19:47:47.868Z,57.69
2023-05-23T19:50:16.143Z,57.38
2023-05-23T19:52:45.769Z,58.36
2023-05-23T19:55:14.457Z,59.13
2023-05-23T19:57:42.609Z,60.20
2023-05-23T20:00:14.767Z,61.00
2023-05-23T20:02:44.552Z,61.78
2023-05-23T20:05:12.828Z,61.61
2023-05-23T20:07:41.934Z,60.70
2023-05-23T20:10:12.387Z,60.67
2023-05-23T20:12:40.588Z,60.64
2023-05-23T20:15:09.781Z,61.42
2023-05-23T20:17:37.974Z,61.58
2023-05-23T20:20:07.407Z,61.67
2023-05-23T20:22:35.798Z,62.05
2023-05-23T20:25:05.728Z,63.82
2023-05-23T20:27:35.534Z,65.01
2023-05-23T20:30:04.087Z,66.10
2023-05-23T20:32:32.533Z,65.33
2023-05-23T20:35:00.986Z,65.95
2023-05-23T20:37:29.293Z,65.92
2023-05-23T20:39:58.052Z,65.92
2023-05-23T20:42:27.066Z,66.34
2023-05-23T20:44:58.003Z,66.90
2023-05-23T20:47:26.571Z,67.37
2023-05-23T20:49:56.071Z,67.37
2023-05-23T20:52:24.576Z,67.69
2023-05-23T20:54:54.517Z,66.33
2023-05-23T20:57:23.072Z,66.26
2023-05-23T20:59:51.308Z,66.55
2023-05-23T21:02:20.903Z,67.35
2023-05-23T21:04:49.180Z,66.99
2023-05-23T21:07:17.400Z,67.35
2023-05-23T21:09:46.029Z,67.07
2023-05-23T21:12:14.249Z,67.02
2023-05-23T21:14:42.341Z,67.63
2023-05-23T21:17:10.470Z,67.93
2023-05-23T21:19:40.035Z,67.69
2023-05-23T21:22:08.274Z,67.20
2023-05-23T21:24:36.425Z,67.25
2023-05-23T21:27:05.360Z,67.16
2023-05-23T21:29:33.425Z,66.75
2023-05-23T21:32:01.660Z,68.35
2023-05-23T21:34:29.925Z,68.75
2023-05-23T21:36:59.403Z,68.58
2023-05-23T21:39:36.091Z,69.33
2023-05-23T21:42:11.395Z,69.49
2023-05-23T21:44:40.892Z,69.14
2023-05-23T21:47:09.124Z,70.07
2023-05-23T21:49:37.981Z,68.44
2023-05-23T21:52:07.494Z,68.50
2023-05-23T21:54:35.767Z,69.21
2023-05-23T21:57:03.916Z,68.50
2023-05-23T21:59:32.080Z,68.15
2023-05-23T22:02:00.970Z,68.47
2023-05-23T22:04:29.102Z,68.10
2023-05-23T22:06:57.134Z,68.94
2023-05-23T22:09:26.656Z,68.86
2023-05-23T22:11:55.921Z,68.64
2023-05-23T22:14:23.999Z,69.21
2023-05-23T22:16:52.284Z,68.49
2023-05-23T22:19:21.134Z,69.10
2023-05-23T22:21:49.264Z,68.78
2023-05-23T22:24:17.411Z,69.17
2023-05-23T22:26:46.857Z,68.96
2023-05-23T22:29:14.906Z,69.22
2023-05-23T22:31:43.295Z,68.94
2023-05-23T22:34:11.568Z,68.99
2023-05-23T22:36:39.622Z,69.67
2023-05-23T22:39:08.058Z,70.17
2023-05-23T22:41:36.653Z,69.46
2023-05-23T22:44:06.216Z,69.53
2023-05-23T22:46:34.329Z,69.89
2023-05-23T22:49:03.694Z,69.80
2023-05-23T22:51:34.180Z,70.05
2023-05-23T22:54:02.481Z,69.50
2023-05-23T22:56:30.522Z,69.14
2023-05-23T22:58:58.593Z,68.52
2023-05-23T23:01:28.081Z,69.65
2023-05-23T23:03:56.178Z,70.51
2023-05-23T23:06:24.206Z,70.46
2023-05-23T23:08:52.838Z,70.64
2023-05-23T23:11:21.001Z,70.87
2023-05-23T23:13:49.024Z,71.29
2023-05-23T23:16:19.335Z,72.38
2023-05-23T23:18:50.012Z,71.90
2023-05-23T23:21:18.093Z,72.50
2023-05-23T23:23:46.243Z,74.34
2023-05-23T23:26:14.319Z,73.89
2023-05-23T23:28:42.367Z,74.22
2023-05-23T23:31:10.545Z,74.81
2023-05-23T23:33:38.805Z,74.57
2023-05-23T23:36:08.790Z,75.21
2023-05-23T23:38:38.078Z,75.59
2023-05-23T23:41:06.276Z,75.86
2023-05-23T23:43:34.346Z,76.54
2023-05-23T23:46:02.437Z,76.11
2023-05-23T23:48:30.569Z,75.58
2023-05-23T23:50:58.628Z,76.60
2023-05-23T23:53:28.048Z,77.28
2023-05-23T23:55:56.094Z,76.86
2023-05-23T23:58:24.121Z,76.72
